Latest Coastal Weather Observations for Lord Howe Island Windy Point

IDN60701

Issued at 2:02 am EST Saturday 28 May 2022 (issued every 10 minutes, with the page automatically refreshed every 10 minutes)

About coastal observations | Map of coastal stations | Coastal observations for NSW | Marine services | Other Formats
Station Details ID: 200715 Name: LORD HOWE ISLAND WINDY POINT Lat: -31.54 Lon: 159.07 Height: 4.0 m
Data from the previous 72 hours. | See also: Recent months at Lord Howe Island Windy Point
Date/Time
EST
Wind Sea
Height
m
Swell Vis
km
Cloud Weather Temp
°C
Press
MSL
hPa
Rain since
9am
mm
Dir  Spd
kts
Gust
kts
Height
m
Period
s
Dir
28/02:00am E 20 25 - - - - - - - - - -
28/01:30am ENE 19 25 - - - - - - - - - -
28/01:00am ENE 20 26 - - - - - - - - - -
28/12:30am E 19 24 - - - - - - - - - -
28/12:00am ENE 19 25 - - - - - - - - - -
 
Date/Time
EST
Wind Sea
Height
m
Swell Vis
km
Cloud Weather Temp
°C
Press
MSL
hPa
Rain since
9am
mm
Dir  Spd
kts
Gust
kts
Height
m
Period
s
Dir
27/11:30pm ENE 19 27 - - - - - - - - - -
27/11:00pm E 19 25 - - - - - - - - - -
27/10:30pm ENE 22 29 - - - - - - - - - -
27/10:00pm ENE 21 27 - - - - - - - - - -
27/09:30pm ENE 21 26 - - - - - - - - - -
27/09:00pm ENE 20 25 - - - - - - - - - -
27/08:30pm ENE 20 28 - - - - - - - - - -
27/08:00pm ENE 20 28 - - - - - - - - - -
27/07:30pm ENE 18 23 - - - - - - - - - -
27/07:00pm ENE 19 26 - - - - - - - - - -
27/06:30pm ENE 19 25 - - - - - - - - - -
27/06:00pm ENE 19 24 - - - - - - - - - -
27/05:30pm ENE 19 25 - - - - - - - - - -
27/05:00pm ENE 20 25 - - - - - - - - - -
27/04:30pm ENE 18 25 - - - - - - - - - -
27/04:00pm ENE 21 27 - - - - - - - - - -
27/03:30pm ENE 21 28 - - - - - - - - - -
27/03:00pm ENE 21 28 - - - - - - - - - -
27/02:30pm ENE 19 25 - - - - - - - - - -
27/02:00pm ENE 21 28 - - - - - - - - - -
27/01:30pm ENE 22 27 - - - - - - - - - -
27/01:00pm ENE 20 26 - - - - - - - - - -
27/12:30pm ENE 20 27 - - - - - - - - - -
27/12:00pm ENE 19 24 - - - - - - - - - -
27/11:30am ENE 19 25 - - - - - - - - - -
27/11:00am ENE 19 25 - - - - - - - - - -
27/10:30am E 19 25 - - - - - - - - - -
27/10:00am ENE 18 24 - - - - - - - - - -
27/09:30am ENE 18 25 - - - - - - - - - -
27/09:00am ENE 18 24 - - - - - - - - - -
27/08:30am ENE 19 24 - - - - - - - - - -
27/08:00am ENE 18 25 - - - - - - - - - -
27/07:30am E 17 23 - - - - - - - - - -
27/07:00am ENE 19 25 - - - - - - - - - -
27/06:30am ENE 18 23 - - - - - - - - - -
27/06:00am ENE 19 25 - - - - - - - - - -
27/05:30am ENE 19 26 - - - - - - - - - -
27/05:00am ENE 19 24 - - - - - - - - - -
27/04:30am ENE 19 25 - - - - - - - - - -
27/04:00am ENE 21 26 - - - - - - - - - -
27/03:30am ENE 19 25 - - - - - - - - - -
27/03:00am ENE 20 26 - - - - - - - - - -
27/02:30am ENE 20 26 - - - - - - - - - -
27/02:00am ENE 18 25 - - - - - - - - - -
27/01:30am ENE 19 25 - - - - - - - - - -
27/01:00am ENE 19 25 - - - - - - - - - -
27/12:30am ENE 15 20 - - - - - - - - - -
27/12:00am ENE 16 22 - - - - - - - - - -
 
Date/Time
EST
Wind Sea
Height
m
Swell Vis
km
Cloud Weather Temp
°C
Press
MSL
hPa
Rain since
9am
mm
Dir  Spd
kts
Gust
kts
Height
m
Period
s
Dir
26/11:30pm ENE 17 22 - - - - - - - - - -
26/11:00pm ENE 17 22 - - - - - - - - - -
26/10:30pm ENE 17 24 - - - - - - - - - -
26/10:00pm ENE 18 24 - - - - - - - - - -
26/09:30pm ENE 19 25 - - - - - - - - - -
26/09:00pm E 20 25 - - - - - - - - - -
26/08:30pm ENE 20 28 - - - - - - - - - -
26/08:00pm E 20 26 - - - - - - - - - -
26/07:30pm ENE 20 26 - - - - - - - - - -
26/07:00pm ENE 21 27 - - - - - - - - - -
26/06:30pm ENE 21 27 - - - - - - - - - -
26/06:00pm ENE 23 29 - - - - - - - - - -
26/05:30pm E 21 27 - - - - - - - - - -
26/05:00pm ENE 20 26 - - - - - - - - - -
26/04:30pm ENE 19 25 - - - - - - - - - -
26/04:00pm ENE 20 27 - - - - - - - - - -
26/03:30pm E 19 23 - - - - - - - - - -
26/03:00pm E 21 27 - - - - - - - - - -
26/02:30pm ENE 19 28 - - - - - - - - - -
26/02:00pm E 19 25 - - - - - - - - - -
26/01:48pm ENE 19 29 - - - - - - - - - -
26/01:30pm E 21 26 - - - - - - - - - -
26/01:00pm E 22 27 - - - - - - - - - -
26/12:30pm E 21 27 - - - - - - - - - -
26/12:00pm E 22 30 - - - - - - - - - -
26/11:30am E 23 28 - - - - - - - - - -
26/11:00am E 23 30 - - - - - - - - - -
26/10:30am E 24 29 - - - - - - - - - -
26/10:00am E 23 28 - - - - - - - - - -
26/09:30am E 23 29 - - - - - - - - - -
26/09:00am E 24 28 - - - - - - - - - -
26/08:30am E 23 30 - - - - - - - - - -
26/08:00am E 21 28 - - - - - - - - - -
26/07:30am E 21 26 - - - - - - - - - -
26/07:00am E 22 28 - - - - - - - - - -
26/06:30am ESE 18 27 - - - - - - - - - -
26/06:27am E 19 29 - - - - - - - - - -
26/06:00am E 21 26 - - - - - - - - - -
26/05:30am E 20 24 - - - - - - - - - -
26/05:00am E 18 21 - - - - - - - - - -
26/04:30am E 17 22 - - - - - - - - - -
26/04:00am E 18 21 - - - - - - - - - -
26/03:30am E 17 22 - - - - - - - - - -
26/03:00am E 16 21 - - - - - - - - - -
26/02:30am ENE 15 19 - - - - - - - - - -
26/02:00am E 16 19 - - - - - - - - - -
26/01:30am E 15 18 - - - - - - - - - -
26/01:00am ENE 15 20 - - - - - - - - - -
26/12:30am E 16 20 - - - - - - - - - -
26/12:00am ENE 16 19 - - - - - - - - - -
 
Date/Time
EST
Wind Sea
Height
m
Swell Vis
km
Cloud Weather Temp
°C
Press
MSL
hPa
Rain since
9am
mm
Dir  Spd
kts
Gust
kts
Height
m
Period
s
Dir
25/11:30pm E 16 21 - - - - - - - - - -
25/11:00pm ENE 16 23 - - - - - - - - - -
25/10:30pm ENE 16 21 - - - - - - - - - -
25/10:00pm E 16 21 - - - - - - - - - -
25/09:30pm E 17 22 - - - - - - - - - -
25/09:00pm E 17 22 - - - - - - - - - -
25/08:30pm E 17 23 - - - - - - - - - -
25/08:00pm E 17 23 - - - - - - - - - -
25/07:30pm E 18 22 - - - - - - - - - -
25/07:00pm ENE 18 25 - - - - - - - - - -
25/06:52pm E 19 24 - - - - - - - - - -
25/06:30pm ESE 17 25 - - - - - - - - - -
25/06:00pm E 16 22 - - - - - - - - - -
25/05:30pm E 15 19 - - - - - - - - - -
25/05:00pm E 16 21 - - - - - - - - - -
25/04:30pm E 17 21 - - - - - - - - - -
25/04:00pm E 16 21 - - - - - - - - - -
25/03:30pm E 17 21 - - - - - - - - - -
25/03:00pm ENE 18 22 - - - - - - - - - -
25/02:30pm E 15 20 - - - - - - - - - -
25/02:00pm E 17 22 - - - - - - - - - -
25/01:30pm E 15 20 - - - - - - - - - -
25/01:00pm E 18 22 - - - - - - - - - -
25/12:30pm E 16 19 - - - - - - - - - -
25/12:00pm E 17 21 - - - - - - - - - -
25/11:30am E 15 19 - - - - - - - - - -
25/11:00am E 15 18 - - - - - - - - - -
25/10:30am E 14 19 - - - - - - - - - -
25/10:00am E 16 21 - - - - - - - - - -
25/09:30am ESE 15 19 - - - - - - - - - -
25/09:00am ESE 12 16 - - - - - - - - - -
25/08:30am ESE 14 21 - - - - - - - - - -
25/08:00am ESE 10 16 - - - - - - - - - -
25/07:30am ESE 13 22 - - - - - - - - - -
25/07:00am ESE 9 13 - - - - - - - - - -
25/06:30am ESE 14 18 - - - - - - - - - -
25/06:00am ESE 13 18 - - - - - - - - - -
25/05:30am E 15 19 - - - - - - - - - -
25/05:00am ESE 13 17 - - - - - - - - - -
25/04:30am E 12 19 - - - - - - - - - -
25/04:00am E 15 21 - - - - - - - - - -
25/03:30am E 15 19 - - - - - - - - - -
25/03:00am E 18 23 - - - - - - - - - -
25/02:30am E 15 19 - - - - - - - - - -

Other formats

Comma delimited format used in spreadsheet applications
http://www.bom.gov.au/fwo/IDN60701/IDN60701.95995.axf

JavaScript Object Notation format (JSON) in row-major order
http://www.bom.gov.au/fwo/IDN60701/IDN60701.95995.json

Data quality

Most of these data are generated automatically and are frequently updated. Quality checks on data are not normally performed. It is possible for incorrect values to appear. Refer to information at About Latest Weather Observations and please check the disclaimer before using these data.